METAR Data
IDs: Format: Raw Decoded Include TAF

Data at: 0139 UTC 20 Jan 2022

KLMO 200114Z AUTO 00000KT 4SM BR OVC007 M06/M07 A3034 RMK AO2 T10571072
KLMO 200054Z AUTO 00000KT 4SM BR OVC007 M06/M07 A3034 RMK AO2 T10561071
KLMO 200034Z AUTO 00000KT 4SM BR OVC007 M05/M07 A3033 RMK AO2 T10551070
KLMO 200014Z AUTO 00000KT 4SM BR OVC007 M05/M07 A3033 RMK AO2 T10551071
KLMO 192354Z AUTO 00000KT 5SM BR OVC007 M05/M07 A3032 RMK AO2 T10551071
KLMO 192334Z AUTO 00000KT 4SM BR OVC007 M05/M07 A3032 RMK AO2 T10551070
KLMO 192314Z AUTO 00000KT 4SM BR OVC007 M05/M07 A3032 RMK AO2 T10551070
KLMO 192254Z AUTO 10004KT 3SM BR OVC007 M05/M07 A3031 RMK AO2 T10521068
KLMO 192234Z AUTO 00000KT 3SM BR OVC007 M05/M07 A3030 RMK AO2 T10531069
KLMO 192214Z AUTO 00000KT 3SM BR OVC007 M05/M07 A3030 RMK AO2 T10521068
KLMO 192154Z AUTO 07005KT 3SM BR OVC007 M05/M07 A3030 RMK AO2 T10521067
KLMO 192134Z AUTO 08005KT 2 1/2SM BR OVC007 M05/M07 A3028 RMK AO2 T10521067
KLMO 192114Z AUTO 09006KT 2 1/2SM BR OVC005 M05/M07 A3029 RMK AO2 T10511066
KLMO 192054Z AUTO 08007KT 2 1/2SM BR OVC007 M05/M06 A3029 RMK AO2 T10501065
KLMO 192034Z AUTO 08007KT 2SM BR OVC007 M05/M06 A3028 RMK AO2 T10471062
KLMO 192014Z AUTO 08007KT 1 3/4SM -SN OVC007 M04/M06 A3028 RMK AO2 T10451060
KLMO 191954Z AUTO 09007KT 2 1/2SM -SN OVC007 M04/M06 A3029 RMK AO2 T10411056
KLMO 191934Z AUTO 10005KT 2SM -SN OVC007 M04/M05 A3029 RMK AO2 T10381053
KLMO 191914Z AUTO 09005KT 1 3/4SM -SN OVC007 M04/M05 A3029 RMK AO2 T10401054
KLMO 191854Z AUTO 08003KT 2SM -SN OVC007 M04/M05 A3030 RMK AO2 T10401055
KLMO 191834Z AUTO 09004KT 2SM -SN OVC007 M04/M05 A3030 RMK AO2 T10411055
KLMO 191814Z AUTO 10006KT 1 3/4SM -SN OVC005 M04/M05 A3030 RMK AO2 T10411055
KLMO 191754Z AUTO 07005KT 1 1/2SM -SN OVC005 M04/M05 A3030 RMK AO2 T10381052
KLMO 191734Z AUTO 08007KT 1 1/2SM -SN OVC005 M04/M05 A3030 RMK AO2 T10401053
KLMO 191714Z AUTO 07007KT 1 1/2SM -SN OVC005 M04/M05 A3029 RMK AO2 T10391052
KLMO 191654Z AUTO 09007KT 1 1/2SM -SN OVC005 M04/M05 A3028 RMK AO2 T10361050
KLMO 191634Z AUTO 08008KT 1 1/2SM -SN OVC005 M03/M05 A3027 RMK AO2 T10331047
KLMO 191615Z AUTO 07009KT 2SM -SN OVC005 M03/M04 A3025 RMK AO2 T10271041
KLMO 191554Z AUTO 07007KT 1 3/4SM BR OVC005 M02/M04 A3024 RMK AO2 T10251040
KLMO 191534Z AUTO 09007KT 1 3/4SM -SN OVC005 M02/M03 A3023 RMK AO2 T10211035
KLMO 191514Z AUTO 00000KT 1 1/2SM -SN OVC005 M02/M03 A3021 RMK AO2 T10201035
KLMO 191454Z AUTO 00000KT 2 1/2SM -SN OVC005 M02/M03 A3020 RMK AO2 T10201035
KLMO 191434Z AUTO 00000KT 2 1/2SM -SN OVC003 M02/M03 A3019 RMK AO2 T10201035
KLMO 191414Z AUTO 00000KT 2 1/2SM -SN OVC003 M02/M03 A3018 RMK AO2 T10201035
KLMO 191354Z AUTO 00000KT 2 1/2SM BR OVC003 M02/M03 A3017 RMK AO2 T10201035
KLMO 191334Z AUTO 00000KT 1 3/4SM BR OVC003 M02/M03 A3016 RMK AO2 T10181035
KLMO 191314Z AUTO 00000KT 2SM BR OVC003 M01/M03 A3015 RMK AO2 T10151030
KLMO 191254Z AUTO 00000KT 2 1/2SM BR OVC003 M01/M03 A3015 RMK AO2 T10151031
KLMO 191234Z AUTO 00000KT 4SM BR OVC005 M01/M03 A3014 RMK AO2 T10131031
KLMO 191214Z AUTO 00000KT 7SM OVC005 M01/M03 A3013 RMK AO2 T10111030
KLMO 191154Z AUTO 00000KT 10SM OVC005 M01/M03 A3012 RMK AO2 T10101030
KLMO 191134Z AUTO 11006KT 10SM OVC007 M01/M03 A3012 RMK AO2 T10101030
KLMO 191114Z AUTO 00000KT 10SM OVC007 M01/M03 A3013 RMK AO2 T10091031
KLMO 191054Z AUTO 00000KT 10SM OVC007 M01/M03 A3013 RMK AO2 T10071030
KLMO 191034Z AUTO 00000KT 10SM OVC009 M01/M03 A3013 RMK AO2 T10061031
KLMO 191014Z AUTO 09007KT 10SM OVC012 00/M03 A3013 RMK AO2 T10031030
KLMO 190954Z AUTO 08005KT 10SM OVC014 00/M03 A3012 RMK AO2 T10011030
KLMO 190934Z AUTO 00000KT 10SM OVC014 00/M03 A3012 RMK AO2 T00001030
KLMO 190914Z AUTO 00000KT 10SM OVC014 00/M03 A3012 RMK AO2 T00001029
KLMO 190854Z AUTO 00000KT 10SM OVC014 00/M03 A3011 RMK AO2 T00021029
KLMO 190834Z AUTO 00000KT 10SM OVC014 01/M03 A3011 RMK AO2 T00051030
KLMO 190814Z AUTO 01007KT 10SM OVC014 01/M03 A3009 RMK AO2 T00051030
KLMO 190754Z AUTO 01006KT 10SM BKN016 00/M03 A3009 RMK AO2 T00011034
KLMO 190734Z AUTO 36007KT 10SM CLR 00/M04 A3006 RMK AO2 T00011036
KLMO 190714Z AUTO 35007KT 10SM CLR 00/M04 A3006 RMK AO2 T00001045
KLMO 190654Z AUTO 02007KT 10SM CLR 01/M05 A3005 RMK AO2 T00051048
KLMO 190634Z AUTO 01008KT 10SM SCT110 M01/M06 A3003 RMK AO2 T10081062
KLMO 190614Z AUTO 00000KT 10SM BKN110 M01/M07 A3001 RMK AO2 T10101067
KLMO 190554Z AUTO 00000KT 10SM BKN110 00/M07 A3000 RMK AO2 T10031068
KLMO 190534Z AUTO 00000KT 10SM SCT110 00/M07 A2999 RMK AO2 T10041070
KLMO 190514Z AUTO 00000KT 10SM SCT110 01/M07 A2998 RMK AO2 T00061069
KLMO 190454Z AUTO 00000KT 10SM SCT110 00/M07 A2998 RMK AO2 T10021070
KLMO 190434Z AUTO 00000KT 10SM SCT110 01/M07 A2998 RMK AO2 T00141075
KLMO 190414Z AUTO 00000KT 10SM CLR 00/M07 A2998 RMK AO2 T00001071
KLMO 190354Z AUTO 00000KT 10SM CLR 01/M07 A2998 RMK AO2 T00101073
KLMO 190334Z AUTO 00000KT 10SM CLR 01/M07 A2997 RMK AO2 T00111067
KLMO 190314Z AUTO 00000KT 10SM CLR 00/M06 A2997 RMK AO2 T00041064
KLMO 190254Z AUTO 00000KT 10SM CLR 02/M07 A2996 RMK AO2 T00151068
KLMO 190234Z AUTO 00000KT 10SM CLR 02/M07 A2996 RMK AO2 T00181068
KLMO 190214Z AUTO 00000KT 10SM CLR 02/M07 A2995 RMK AO2 T00181069
KLMO 190154Z AUTO 00000KT 10SM CLR 03/M07 A2995 RMK AO2 T00331073
KLMO 190134Z AUTO 00000KT 10SM CLR 03/M07 A2994 RMK AO2 T00271068
KLMO 190114Z AUTO 26004KT 10SM CLR 03/M06 A2993 RMK AO2 T00331064
KLMO 190054Z AUTO 30006KT 10SM CLR 03/M06 A2993 RMK AO2 T00291057
KLMO 190034Z AUTO 31008KT 10SM CLR 03/M05 A2991 RMK AO2 T00341054
KLMO 190014Z AUTO 00000KT 10SM CLR 05/M07 A2989 RMK AO2 T00481069
KLMO 182354Z AUTO 00000KT 10SM CLR 06/M07 A2989 RMK AO2 T00581074
KLMO 182334Z AUTO 00000KT 10SM CLR 05/M08 A2986 RMK AO2 T00511083
KLMO 182314Z AUTO 00000KT 10SM SCT120 07/M09 A2985 RMK AO2 T00671087
KLMO 182254Z AUTO 00000KT 10SM SCT110 07/M08 A2984 RMK AO2 T00671078
KLMO 182234Z AUTO 00000KT 10SM SCT110 08/M10 A2983 RMK AO2 T00811100
KLMO 182214Z AUTO 00000KT 10SM SCT110 08/M10 A2983 RMK AO2 T00821101
KLMO 182154Z AUTO 00000KT 10SM CLR 10/M13 A2982 RMK AO2 T00961127
KLMO 182134Z AUTO 00000KT 10SM CLR 10/M14 A2982 RMK AO2 T01041143
KLMO 182114Z AUTO 00000KT 10SM CLR 11/M15 A2982 RMK AO2 T01111147
KLMO 182054Z AUTO 00000KT 10SM CLR 11/M15 A2981 RMK AO2 T01091153
KLMO 182034Z AUTO 00000KT 10SM SCT110 11/M14 A2982 RMK AO2 T01081139
KLMO 182014Z AUTO 00000KT 10SM SCT120 12/M16 A2982 RMK AO2 T01151162
KLMO 181954Z AUTO 24009KT 10SM CLR 12/M17 A2982 RMK AO2 T01151167
KLMO 181934Z AUTO 25008KT 10SM CLR 12/M17 A2982 RMK AO2 T01151170
KLMO 181914Z AUTO 25009KT 10SM CLR 12/M17 A2983 RMK AO2 T01151168
KLMO 181854Z AUTO 25011G17KT 10SM CLR 12/M17 A2983 RMK AO2 T01151167
KLMO 181834Z AUTO 27013KT 10SM CLR 11/M16 A2984 RMK AO2 T01131160
KLMO 181814Z AUTO 00000KT 10SM CLR 10/M15 A2985 RMK AO2 T01031149
KLMO 181754Z AUTO 00000KT 10SM CLR 09/M12 A2986 RMK AO2 T00911119
KLMO 181734Z AUTO 26006KT 10SM CLR 10/M15 A2987 RMK AO2 T01021155
KLMO 181714Z AUTO 27009KT 10SM CLR 10/M15 A2987 RMK AO2 T01011148
KLMO 181654Z AUTO 27010KT 10SM CLR 09/M13 A2987 RMK AO2 T00941133
KLMO 181634Z AUTO 28006KT 10SM CLR 05/M08 A2987 RMK AO2 T00491082
KLMO 181614Z AUTO 00000KT 10SM CLR 06/M09 A2987 RMK AO2 T00561087
KLMO 181554Z AUTO 00000KT 10SM CLR 02/M05 A2986 RMK AO2 T00211053
KLMO 181534Z AUTO 00000KT 10SM CLR 04/M06 A2985 RMK AO2 T00361065
KLMO 181514Z AUTO 00000KT 10SM CLR 03/M06 A2985 RMK AO2 T00311060
KLMO 181454Z AUTO 00000KT 10SM CLR 04/M06 A2985 RMK AO2 T00401065
KLMO 181434Z AUTO 00000KT 10SM CLR 03/M06 A2985 RMK AO2 T00301060
KLMO 181414Z AUTO 00000KT 10SM CLR 03/M06 A2985 RMK AO2 T00271060
KLMO 181354Z AUTO 00000KT 10SM CLR 02/M06 A2984 RMK AO2 T00241057